createdAt,value
2023-03-29T00:03:45.693Z,60.52
2023-03-29T00:08:54.109Z,60.98
2023-03-29T00:13:57.243Z,61.39
2023-03-29T00:18:59.761Z,61.53
2023-03-29T00:24:02.228Z,61.79
2023-03-29T00:29:04.721Z,68.49
2023-03-29T00:34:07.241Z,70.95
2023-03-29T00:39:10.743Z,63.31
2023-03-29T00:44:49.176Z,55.21
2023-03-29T00:49:53.098Z,52.54
2023-03-29T00:54:59.379Z,53.39
2023-03-29T01:00:05.319Z,54.44
2023-03-29T01:05:20.044Z,55.26
2023-03-29T01:10:29.573Z,56.09
2023-03-29T01:15:33.401Z,57.35
2023-03-29T01:20:51.437Z,57.89
2023-03-29T01:26:04.742Z,58.58
2023-03-29T01:31:20.791Z,59.23
2023-03-29T01:36:31.357Z,60.08
2023-03-29T01:41:37.581Z,60.62
2023-03-29T01:46:46.705Z,60.96
2023-03-29T01:52:02.537Z,61.35
2023-03-29T01:57:10.210Z,61.70
2023-03-29T02:02:15.998Z,71.28
2023-03-29T02:07:24.147Z,73.79
2023-03-29T02:12:26.901Z,66.21
2023-03-29T02:17:30.538Z,61.42
2023-03-29T02:22:49.812Z,55.70
2023-03-29T02:27:52.971Z,53.83
2023-03-29T02:33:06.662Z,55.25
2023-03-29T02:38:14.540Z,56.45
2023-03-29T02:43:17.492Z,57.24
2023-03-29T02:48:23.571Z,58.22
2023-03-29T02:53:32.273Z,59.18
2023-03-29T02:58:36.601Z,66.63
2023-03-29T03:03:39.246Z,72.32
2023-03-29T03:08:42.064Z,67.12
2023-03-29T03:13:44.604Z,62.19
2023-03-29T03:18:49.257Z,56.17
2023-03-29T03:23:51.981Z,55.87
2023-03-29T03:28:54.804Z,57.71
2023-03-29T03:33:57.435Z,58.12
2023-03-29T03:39:01.588Z,58.29
2023-03-29T03:44:04.261Z,58.98
2023-03-29T03:49:06.893Z,59.49
2023-03-29T03:54:09.353Z,60.32
2023-03-29T03:59:11.840Z,68.50
2023-03-29T04:04:14.570Z,73.74
2023-03-29T04:09:18.006Z,67.05
2023-03-29T04:14:21.568Z,62.92
2023-03-29T04:19:24.076Z,61.47
2023-03-29T04:24:26.711Z,61.12
2023-03-29T04:29:29.591Z,60.51
2023-03-29T04:34:32.169Z,60.12
2023-03-29T04:39:34.879Z,59.61
2023-03-29T04:44:37.807Z,57.06
2023-03-29T04:49:41.337Z,56.78
2023-03-29T04:54:43.871Z,57.61
2023-03-29T04:59:46.330Z,58.24
2023-03-29T05:04:49.096Z,60.07
2023-03-29T05:09:51.887Z,67.47
2023-03-29T05:14:54.475Z,72.88
2023-03-29T05:19:57.128Z,66.61
2023-03-29T05:24:59.602Z,61.50
2023-03-29T05:30:02.221Z,55.11
2023-03-29T05:35:06.625Z,54.17
2023-03-29T05:40:09.853Z,55.44
2023-03-29T05:45:12.630Z,57.59
2023-03-29T05:50:15.333Z,58.40
2023-03-29T05:55:18.367Z,60.42
2023-03-29T06:00:25.443Z,61.00
2023-03-29T06:05:28.041Z,68.45
2023-03-29T06:10:30.578Z,71.75
2023-03-29T06:15:34.866Z,65.32
2023-03-29T06:20:37.378Z,60.26
2023-03-29T06:25:40.421Z,53.17
2023-03-29T06:30:43.808Z,56.31
2023-03-29T06:35:48.510Z,64.66
2023-03-29T06:40:52.580Z,59.00
2023-03-29T06:45:55.098Z,55.58
2023-03-29T06:50:57.762Z,61.30
2023-03-29T06:56:05.042Z,63.98
2023-03-29T07:01:07.644Z,54.71
2023-03-29T07:06:10.216Z,57.29
2023-03-29T07:11:15.136Z,63.18
2023-03-29T07:16:19.193Z,52.84
2023-03-29T07:21:22.556Z,55.34
2023-03-29T07:26:28.582Z,60.15
2023-03-29T07:31:35.614Z,53.82
2023-03-29T07:36:38.785Z,58.04
2023-03-29T07:41:41.260Z,67.97
2023-03-29T07:46:44.406Z,61.77
2023-03-29T07:51:47.729Z,48.98
2023-03-29T07:56:50.888Z,54.24
2023-03-29T08:01:55.201Z,62.08
2023-03-29T08:06:58.021Z,56.29
2023-03-29T08:12:00.555Z,56.71
2023-03-29T08:17:03.156Z,57.60
2023-03-29T08:22:05.878Z,59.05
2023-03-29T08:27:08.587Z,56.73
2023-03-29T08:32:11.386Z,55.49
2023-03-29T08:37:13.992Z,55.05
2023-03-29T08:42:49.147Z,57.59
2023-03-29T08:47:59.674Z,56.40
2023-03-29T08:53:15.358Z,52.21
2023-03-29T08:58:26.533Z,55.15
2023-03-29T09:03:34.098Z,52.35
2023-03-29T09:08:47.431Z,52.08
2023-03-29T09:14:21.748Z,50.86
2023-03-29T09:19:48.280Z,51.49
2023-03-29T09:25:06.713Z,50.66
2023-03-29T09:30:15.159Z,48.06
2023-03-29T09:35:30.952Z,46.11
2023-03-29T09:40:50.002Z,46.07
2023-03-29T09:45:57.136Z,45.17
2023-03-29T09:51:01.095Z,44.44
2023-03-29T09:56:06.698Z,43.89
2023-03-29T10:01:15.657Z,42.27
2023-03-29T10:06:21.362Z,43.39
2023-03-29T10:11:34.895Z,42.99
2023-03-29T10:16:41.160Z,42.60
2023-03-29T10:21:43.743Z,43.12
2023-03-29T10:26:46.965Z,41.82
2023-03-29T10:31:50.603Z,41.76
2023-03-29T10:36:58.896Z,41.09
2023-03-29T10:42:04.162Z,41.07
2023-03-29T10:47:13.323Z,41.03
2023-03-29T10:52:17.608Z,41.05
2023-03-29T10:57:49.585Z,40.93
2023-03-29T11:03:12.013Z,42.03
2023-03-29T11:08:34.786Z,40.89
2023-03-29T11:13:53.152Z,40.10
2023-03-29T11:19:25.930Z,41.09
2023-03-29T11:24:46.803Z,40.61
2023-03-29T11:30:00.307Z,40.89
2023-03-29T11:35:03.218Z,40.24
2023-03-29T11:40:27.933Z,39.34
2023-03-29T11:45:37.296Z,40.16
2023-03-29T11:50:46.279Z,39.89
2023-03-29T11:55:51.285Z,39.35
2023-03-29T12:01:01.729Z,38.83
2023-03-29T12:06:14.172Z,39.85
2023-03-29T12:11:28.673Z,39.71
2023-03-29T12:16:37.051Z,38.47
2023-03-29T12:21:42.158Z,38.55
2023-03-29T12:26:47.614Z,39.39
2023-03-29T12:32:08.882Z,38.87
2023-03-29T12:37:31.892Z,38.14
2023-03-29T12:42:42.860Z,38.41
2023-03-29T12:47:47.100Z,39.62
2023-03-29T12:52:49.745Z,38.97
2023-03-29T12:58:21.124Z,39.18
2023-03-29T13:04:05.922Z,39.35
2023-03-29T13:09:29.715Z,38.36
2023-03-29T13:14:36.473Z,39.19
2023-03-29T13:19:51.910Z,39.07
2023-03-29T13:25:26.541Z,38.32
2023-03-29T13:30:56.777Z,37.89
2023-03-29T13:36:02.443Z,37.96
2023-03-29T13:41:23.122Z,37.70
2023-03-29T13:46:43.070Z,38.12
2023-03-29T13:52:19.326Z,38.85
2023-03-29T13:57:40.087Z,38.55
2023-03-29T14:02:49.535Z,39.07
2023-03-29T14:07:54.541Z,39.73
2023-03-29T14:12:57.547Z,39.42
2023-03-29T14:18:01.345Z,40.10
2023-03-29T14:23:14.346Z,39.78
2023-03-29T14:28:23.062Z,39.82
2023-03-29T14:33:27.288Z,40.44
2023-03-29T14:38:31.594Z,40.61
2023-03-29T14:43:34.252Z,41.39
2023-03-29T14:48:37.736Z,40.03
2023-03-29T14:53:42.494Z,40.21
2023-03-29T14:58:48.801Z,40.04
2023-03-29T15:04:08.871Z,40.73
2023-03-29T15:09:19.861Z,40.46
2023-03-29T15:14:24.190Z,41.12
2023-03-29T15:19:28.061Z,41.41
2023-03-29T15:24:33.129Z,42.37
2023-03-29T15:29:41.632Z,42.18
2023-03-29T15:34:44.125Z,42.08
2023-03-29T15:39:46.650Z,42.95
2023-03-29T15:44:49.183Z,43.43
2023-03-29T15:49:51.809Z,43.78
2023-03-29T15:54:54.499Z,44.35
2023-03-29T16:00:00.045Z,44.76
2023-03-29T16:05:02.577Z,44.80
2023-03-29T16:10:06.430Z,45.01
2023-03-29T16:15:18.197Z,45.00
2023-03-29T16:20:58.538Z,45.04
2023-03-29T16:26:22.982Z,45.21
2023-03-29T16:37:06.522Z,45.78
2023-03-29T16:42:11.206Z,45.92
2023-03-29T16:47:14.440Z,46.25
2023-03-29T17:03:10.665Z,47.13
2023-03-29T17:08:13.360Z,47.20
2023-03-29T17:13:16.018Z,47.56
2023-03-29T17:18:24.021Z,47.79
2023-03-29T17:23:26.751Z,47.98
2023-03-29T17:28:29.246Z,47.94
2023-03-29T17:33:31.801Z,48.42
2023-03-29T17:38:34.846Z,48.92
2023-03-29T17:43:37.333Z,48.73
2023-03-29T17:48:40.065Z,49.32
2023-03-29T17:53:43.294Z,49.03
2023-03-29T17:58:46.634Z,50.02
2023-03-29T18:03:49.228Z,49.80
2023-03-29T18:08:53.136Z,50.19
2023-03-29T18:13:59.236Z,50.59
2023-03-29T18:19:01.916Z,50.59
2023-03-29T18:24:04.499Z,50.90
2023-03-29T18:29:09.844Z,50.94
2023-03-29T18:34:12.875Z,51.14
2023-03-29T18:39:15.384Z,51.58
2023-03-29T18:44:18.709Z,51.23
2023-03-29T18:49:21.423Z,51.19
2023-03-29T18:54:25.549Z,51.47
2023-03-29T18:59:31.955Z,51.48
2023-03-29T19:04:34.579Z,51.44
2023-03-29T19:09:39.344Z,51.74
2023-03-29T19:14:42.381Z,51.55
2023-03-29T19:19:45.294Z,51.64
2023-03-29T19:24:48.311Z,51.69
2023-03-29T19:29:51.306Z,51.77
2023-03-29T19:34:53.800Z,51.98
2023-03-29T19:39:57.067Z,51.96
2023-03-29T19:45:00.141Z,51.94
2023-03-29T19:50:04.663Z,51.86
2023-03-29T19:55:08.366Z,51.92
2023-03-29T20:00:11.474Z,52.25
2023-03-29T20:05:15.967Z,52.21
2023-03-29T20:10:19.499Z,52.21
2023-03-29T20:15:25.520Z,52.32
2023-03-29T20:20:31.805Z,52.12
2023-03-29T20:25:37.316Z,52.16
2023-03-29T20:31:06.913Z,52.64
2023-03-29T20:36:24.026Z,53.20
2023-03-29T20:41:38.239Z,53.71
2023-03-29T20:46:54.272Z,53.76
2023-03-29T20:52:04.576Z,53.79
2023-03-29T20:57:07.940Z,53.78
2023-03-29T21:02:17.113Z,53.95
2023-03-29T21:07:22.914Z,54.35
2023-03-29T21:12:25.849Z,54.46
2023-03-29T21:17:28.370Z,54.48
2023-03-29T21:22:31.603Z,54.37
2023-03-29T21:27:35.481Z,54.31
2023-03-29T21:32:38.331Z,54.51
2023-03-29T21:37:41.211Z,54.83
2023-03-29T21:42:43.746Z,54.89
2023-03-29T21:47:46.312Z,55.22
2023-03-29T21:52:48.922Z,55.31
2023-03-29T21:57:51.395Z,55.46
2023-03-29T22:02:54.038Z,55.46
2023-03-29T22:07:58.576Z,55.58
2023-03-29T22:13:01.099Z,55.59
2023-03-29T22:18:03.893Z,55.40
2023-03-29T22:23:06.482Z,55.27
2023-03-29T22:28:08.964Z,55.19
2023-03-29T22:33:11.542Z,55.21
2023-03-29T22:38:14.030Z,55.32
2023-03-29T22:43:16.542Z,55.41
2023-03-29T22:48:19.016Z,55.53
2023-03-29T22:53:21.505Z,55.72
2023-03-29T22:58:24.520Z,55.81
2023-03-29T23:03:27.679Z,56.00
2023-03-29T23:08:34.641Z,56.41
2023-03-29T23:13:37.238Z,56.67
2023-03-29T23:18:39.855Z,56.86
2023-03-29T23:23:43.381Z,57.13
2023-03-29T23:28:45.901Z,57.06
2023-03-29T23:33:49.417Z,56.95
2023-03-29T23:38:52.531Z,56.92
2023-03-29T23:43:57.447Z,56.91
2023-03-29T23:49:00.024Z,57.19
2023-03-29T23:54:02.680Z,57.24
2023-03-29T23:59:05.205Z,57.28
